sensor_id;sensor_type;location;lat;lon;timestamp;pressure;altitude;pressure_sealevel;temperature;humidity
70053;BME280;57398;52.032;4.376;2022-11-06T00:00:56;101542.28;;;9.78;nan
70053;BME280;57398;52.032;4.376;2022-11-06T00:03:24;101543.66;;;9.74;nan
70053;BME280;57398;52.032;4.376;2022-11-06T00:05:51;101528.72;;;9.76;nan
70053;BME280;57398;52.032;4.376;2022-11-06T00:08:49;101527.72;;;9.77;nan
70053;BME280;57398;52.032;4.376;2022-11-06T00:13:46;101524.31;;;9.77;nan
70053;BME280;57398;52.032;4.376;2022-11-06T00:16:14;101528.13;;;9.81;nan
70053;BME280;57398;52.032;4.376;2022-11-06T00:18:42;101523.13;;;9.79;nan
70053;BME280;57398;52.032;4.376;2022-11-06T00:21:11;101524.94;;;9.85;nan
70053;BME280;57398;52.032;4.376;2022-11-06T00:23:40;101524.53;;;9.89;nan
70053;BME280;57398;52.032;4.376;2022-11-06T00:26:16;101520.38;;;9.88;nan
70053;BME280;57398;52.032;4.376;2022-11-06T00:31:15;101525.75;;;9.93;nan
70053;BME280;57398;52.032;4.376;2022-11-06T00:33:43;101522.56;;;9.91;nan
70053;BME280;57398;52.032;4.376;2022-11-06T00:36:12;101512.78;;;9.93;nan
70053;BME280;57398;52.032;4.376;2022-11-06T00:38:41;101527.34;;;9.94;nan
70053;BME280;57398;52.032;4.376;2022-11-06T00:41:11;101513.38;;;9.95;nan
70053;BME280;57398;52.032;4.376;2022-11-06T00:43:39;101517.97;;;9.93;nan
70053;BME280;57398;52.032;4.376;2022-11-06T00:46:09;101516.16;;;9.86;nan
70053;BME280;57398;52.032;4.376;2022-11-06T00:51:07;101525.31;;;9.76;nan
70053;BME280;57398;52.032;4.376;2022-11-06T00:53:35;101538.47;;;9.74;nan
70053;BME280;57398;52.032;4.376;2022-11-06T00:56:04;101531.09;;;9.71;nan
70053;BME280;57398;52.032;4.376;2022-11-06T00:58:34;101530.25;;;9.64;nan
70053;BME280;57398;52.032;4.376;2022-11-06T01:01:06;101518.88;;;9.58;nan
70053;BME280;57398;52.032;4.376;2022-11-06T01:03:34;101527.63;;;9.57;nan
70053;BME280;57398;52.032;4.376;2022-11-06T01:06:06;101523.44;;;9.56;nan
70053;BME280;57398;52.032;4.376;2022-11-06T01:11:07;101532.81;;;9.51;nan
70053;BME280;57398;52.032;4.376;2022-11-06T01:13:37;101533.19;;;9.48;nan
70053;BME280;57398;52.032;4.376;2022-11-06T01:16:07;101521.41;;;9.45;nan
70053;BME280;57398;52.032;4.376;2022-11-06T01:18:36;101523.03;;;9.46;nan
70053;BME280;57398;52.032;4.376;2022-11-06T01:21:06;101511.66;;;9.47;nan
70053;BME280;57398;52.032;4.376;2022-11-06T01:23:34;101517.25;;;9.44;nan
70053;BME280;57398;52.032;4.376;2022-11-06T01:26:03;101513.81;;;9.43;nan
70053;BME280;57398;52.032;4.376;2022-11-06T01:28:32;101510.66;;;9.41;nan
70053;BME280;57398;52.032;4.376;2022-11-06T01:31:03;101518.63;;;9.40;nan
70053;BME280;57398;52.032;4.376;2022-11-06T01:33:31;101516.63;;;9.42;nan
70053;BME280;57398;52.032;4.376;2022-11-06T01:35:59;101519.22;;;9.42;nan
70053;BME280;57398;52.032;4.376;2022-11-06T01:38:26;101518.44;;;9.41;nan
70053;BME280;57398;52.032;4.376;2022-11-06T01:40:54;101516.81;;;9.40;nan
70053;BME280;57398;52.032;4.376;2022-11-06T01:43:24;101515.00;;;9.41;nan
70053;BME280;57398;52.032;4.376;2022-11-06T01:45:53;101512.41;;;9.41;nan
70053;BME280;57398;52.032;4.376;2022-11-06T01:48:24;101523.97;;;9.38;nan
70053;BME280;57398;52.032;4.376;2022-11-06T01:50:54;101514.63;;;9.37;nan
70053;BME280;57398;52.032;4.376;2022-11-06T01:53:23;101505.22;;;9.36;nan
70053;BME280;57398;52.032;4.376;2022-11-06T01:55:55;101512.81;;;9.38;nan
70053;BME280;57398;52.032;4.376;2022-11-06T02:00:54;101516.59;;;9.35;nan
70053;BME280;57398;52.032;4.376;2022-11-06T02:03:23;101508.38;;;9.32;nan
70053;BME280;57398;52.032;4.376;2022-11-06T02:05:52;101502.41;;;9.31;nan
70053;BME280;57398;52.032;4.376;2022-11-06T02:08:20;101496.25;;;9.32;nan
70053;BME280;57398;52.032;4.376;2022-11-06T02:10:49;101499.63;;;9.33;nan
70053;BME280;57398;52.032;4.376;2022-11-06T02:13:26;101504.22;;;9.31;nan
70053;BME280;57398;52.032;4.376;2022-11-06T02:16:03;101499.22;;;9.29;nan
70053;BME280;57398;52.032;4.376;2022-11-06T02:19:03;101490.25;;;9.32;nan
70053;BME280;57398;52.032;4.376;2022-11-06T02:27:17;101477.88;;;9.27;nan
70053;BME280;57398;52.032;4.376;2022-11-06T02:32:21;101484.44;;;9.30;nan
70053;BME280;57398;52.032;4.376;2022-11-06T02:37:24;101494.63;;;9.31;nan
70053;BME280;57398;52.032;4.376;2022-11-06T02:39:56;101492.84;;;9.32;nan
70053;BME280;57398;52.032;4.376;2022-11-06T02:42:27;101492.84;;;9.32;nan
70053;BME280;57398;52.032;4.376;2022-11-06T02:44:57;101494.63;;;9.31;nan
70053;BME280;57398;52.032;4.376;2022-11-06T02:47:28;101477.69;;;9.29;nan
70053;BME280;57398;52.032;4.376;2022-11-06T02:50:03;101472.50;;;9.29;nan
70053;BME280;57398;52.032;4.376;2022-11-06T02:52:36;101470.88;;;9.28;nan
70053;BME280;57398;52.032;4.376;2022-11-06T02:57:40;101470.69;;;9.29;nan
70053;BME280;57398;52.032;4.376;2022-11-06T03:00:12;101468.50;;;9.26;nan
70053;BME280;57398;52.032;4.376;2022-11-06T03:02:45;101477.69;;;9.29;nan
70053;BME280;57398;52.032;4.376;2022-11-06T03:05:19;101478.66;;;9.28;nan
70053;BME280;57398;52.032;4.376;2022-11-06T03:07:52;101464.53;;;9.30;nan
70053;BME280;57398;52.032;4.376;2022-11-06T03:10:27;101465.31;;;9.31;nan
70053;BME280;57398;52.032;4.376;2022-11-06T03:15:31;101450.56;;;9.31;nan
70053;BME280;57398;52.032;4.376;2022-11-06T03:18:08;101450.56;;;9.31;nan
70053;BME280;57398;52.032;4.376;2022-11-06T03:20:41;101469.31;;;9.33;nan
70053;BME280;57398;52.032;4.376;2022-11-06T03:23:15;101464.75;;;9.35;nan
70053;BME280;57398;52.032;4.376;2022-11-06T03:25:46;101462.75;;;9.37;nan
70053;BME280;57398;52.032;4.376;2022-11-06T03:28:23;101443.81;;;9.37;nan
70053;BME280;57398;52.032;4.376;2022-11-06T03:30:53;101438.81;;;9.35;nan
70053;BME280;57398;52.032;4.376;2022-11-06T03:33:26;101442.00;;;9.37;nan
70053;BME280;57398;52.032;4.376;2022-11-06T03:36:00;101443.59;;;9.38;nan
70053;BME280;57398;52.032;4.376;2022-11-06T03:41:00;101434.03;;;9.39;nan
70053;BME280;57398;52.032;4.376;2022-11-06T03:43:34;101434.25;;;9.37;nan
70053;BME280;57398;52.032;4.376;2022-11-06T03:46:05;101434.03;;;9.39;nan
70053;BME280;57398;52.032;4.376;2022-11-06T03:48:38;101417.31;;;9.41;nan
70053;BME280;57398;52.032;4.376;2022-11-06T03:51:11;101395.94;;;9.39;nan
70053;BME280;57398;52.032;4.376;2022-11-06T03:53:44;101396.34;;;9.43;nan
70053;BME280;57398;52.032;4.376;2022-11-06T03:56:19;101399.53;;;9.45;nan
70053;BME280;57398;52.032;4.376;2022-11-06T03:58:50;101401.75;;;9.41;nan
70053;BME280;57398;52.032;4.376;2022-11-06T04:01:23;101402.91;;;9.46;nan
70053;BME280;57398;52.032;4.376;2022-11-06T04:03:55;101395.56;;;9.49;nan
70053;BME280;57398;52.032;4.376;2022-11-06T04:09:00;101391.16;;;9.50;nan
70053;BME280;57398;52.032;4.376;2022-11-06T04:14:35;101380.59;;;9.51;nan
70053;BME280;57398;52.032;4.376;2022-11-06T04:17:05;101373.63;;;9.52;nan
70053;BME280;57398;52.032;4.376;2022-11-06T04:19:33;101369.44;;;9.51;nan
70053;BME280;57398;52.032;4.376;2022-11-06T04:22:13;101369.63;;;9.49;nan
70053;BME280;57398;52.032;4.376;2022-11-06T04:24:56;101373.19;;;9.48;nan
70053;BME280;57398;52.032;4.376;2022-11-06T04:28:00;101379.59;;;9.46;nan
70053;BME280;57398;52.032;4.376;2022-11-06T04:30:34;101374.22;;;9.47;nan
70053;BME280;57398;52.032;4.376;2022-11-06T04:33:10;101370.59;;;9.48;nan
70053;BME280;57398;52.032;4.376;2022-11-06T04:35:49;101375.00;;;9.48;nan
70053;BME280;57398;52.032;4.376;2022-11-06T04:38:26;101367.81;;;9.43;nan
70053;BME280;57398;52.032;4.376;2022-11-06T04:41:02;101360.44;;;9.40;nan
70053;BME280;57398;52.032;4.376;2022-11-06T04:43:39;101362.03;;;9.41;nan
70053;BME280;57398;52.032;4.376;2022-11-06T04:46:12;101365.63;;;9.40;nan
70053;BME280;57398;52.032;4.376;2022-11-06T04:48:43;101367.44;;;9.39;nan
70053;BME280;57398;52.032;4.376;2022-11-06T04:51:12;101355.44;;;9.38;nan
70053;BME280;57398;52.032;4.376;2022-11-06T04:53:41;101370.22;;;9.38;nan
70053;BME280;57398;52.032;4.376;2022-11-06T04:56:12;101356.81;;;9.34;nan
70053;BME280;57398;52.032;4.376;2022-11-06T04:58:44;101363.44;;;9.37;nan
70053;BME280;57398;52.032;4.376;2022-11-06T05:01:13;101362.44;;;9.38;nan
70053;BME280;57398;52.032;4.376;2022-11-06T05:03:40;101357.84;;;9.33;nan
70053;BME280;57398;52.032;4.376;2022-11-06T05:06:08;101359.63;;;9.33;nan
70053;BME280;57398;52.032;4.376;2022-11-06T05:11:03;101344.88;;;9.33;nan
70053;BME280;57398;52.032;4.376;2022-11-06T05:13:31;101339.69;;;9.33;nan
70053;BME280;57398;52.032;4.376;2022-11-06T05:15:59;101342.47;;;9.32;nan
70053;BME280;57398;52.032;4.376;2022-11-06T05:23:40;101326.53;;;9.28;nan
70053;BME280;57398;52.032;4.376;2022-11-06T05:28:35;101325.94;;;9.33;nan
70053;BME280;57398;52.032;4.376;2022-11-06T05:31:03;101324.91;;;9.34;nan
70053;BME280;57398;52.032;4.376;2022-11-06T05:36:00;101317.53;;;9.31;nan
70053;BME280;57398;52.032;4.376;2022-11-06T05:38:28;101319.13;;;9.32;nan
70053;BME280;57398;52.032;4.376;2022-11-06T05:43:24;101312.19;;;9.32;nan
70053;BME280;57398;52.032;4.376;2022-11-06T05:45:51;101310.16;;;9.34;nan
70053;BME280;57398;52.032;4.376;2022-11-06T05:50:48;101305.97;;;9.33;nan
70053;BME280;57398;52.032;4.376;2022-11-06T05:53:16;101308.16;;;9.36;nan
70053;BME280;57398;52.032;4.376;2022-11-06T05:55:44;101302.97;;;9.36;nan
70053;BME280;57398;52.032;4.376;2022-11-06T05:58:12;101292.44;;;9.38;nan
70053;BME280;57398;52.032;4.376;2022-11-06T06:00:40;101294.22;;;9.37;nan
70053;BME280;57398;52.032;4.376;2022-11-06T06:03:08;101288.81;;;9.39;nan
70053;BME280;57398;52.032;4.376;2022-11-06T06:05:36;101284.84;;;9.36;nan
70053;BME280;57398;52.032;4.376;2022-11-06T06:08:05;101284.66;;;9.38;nan
70053;BME280;57398;52.032;4.376;2022-11-06T06:10:32;101288.81;;;9.39;nan
70053;BME280;57398;52.032;4.376;2022-11-06T06:13:00;101284.66;;;9.38;nan
70053;BME280;57398;52.032;4.376;2022-11-06T06:17:56;101267.50;;;9.37;nan
70053;BME280;57398;52.032;4.376;2022-11-06T06:20:23;101271.69;;;9.38;nan
70053;BME280;57398;52.032;4.376;2022-11-06T06:22:52;101280.66;;;9.35;nan
70053;BME280;57398;52.032;4.376;2022-11-06T06:25:21;101286.63;;;9.36;nan
70053;BME280;57398;52.032;4.376;2022-11-06T06:27:50;101278.25;;;9.34;nan
70053;BME280;57398;52.032;4.376;2022-11-06T06:30:18;101276.44;;;9.34;nan
70053;BME280;57398;52.032;4.376;2022-11-06T06:32:46;101281.63;;;9.34;nan
70053;BME280;57398;52.032;4.376;2022-11-06T06:35:13;101268.88;;;9.33;nan
70053;BME280;57398;52.032;4.376;2022-11-06T06:37:45;101271.47;;;9.33;nan
70053;BME280;57398;52.032;4.376;2022-11-06T06:40:16;101266.50;;;9.31;nan
70053;BME280;57398;52.032;4.376;2022-11-06T06:42:45;101262.50;;;9.29;nan
70053;BME280;57398;52.032;4.376;2022-11-06T06:45:13;101261.72;;;9.28;nan
70053;BME280;57398;52.032;4.376;2022-11-06T06:47:41;101252.72;;;9.24;nan
70053;BME280;57398;52.032;4.376;2022-11-06T06:50:09;101248.16;;;9.26;nan
70053;BME280;57398;52.032;4.376;2022-11-06T06:52:36;101254.13;;;9.27;nan
70053;BME280;57398;52.032;4.376;2022-11-06T06:55:05;101247.13;;;9.27;nan
70053;BME280;57398;52.032;4.376;2022-11-06T06:57:33;101252.94;;;9.29;nan
70053;BME280;57398;52.032;4.376;2022-11-06T07:00:02;101249.34;;;9.30;nan
70053;BME280;57398;52.032;4.376;2022-11-06T07:02:30;101244.34;;;9.29;nan
70053;BME280;57398;52.032;4.376;2022-11-06T07:04:57;101252.13;;;9.35;nan
70053;BME280;57398;52.032;4.376;2022-11-06T07:07:25;101247.94;;;9.34;nan
70053;BME280;57398;52.032;4.376;2022-11-06T07:09:53;101241.78;;;9.35;nan
70053;BME280;57398;52.032;4.376;2022-11-06T07:12:21;101245.75;;;9.38;nan
70053;BME280;57398;52.032;4.376;2022-11-06T07:14:50;101248.34;;;9.44;nan
70053;BME280;57398;52.032;4.376;2022-11-06T07:17:18;101254.72;;;9.42;nan
70053;BME280;57398;52.032;4.376;2022-11-06T07:19:46;101251.72;;;9.38;nan
70053;BME280;57398;52.032;4.376;2022-11-06T07:22:14;101247.94;;;9.41;nan
70053;BME280;57398;52.032;4.376;2022-11-06T07:27:09;101244.16;;;9.43;nan
70053;BME280;57398;52.032;4.376;2022-11-06T07:29:36;101242.38;;;9.44;nan
70053;BME280;57398;52.032;4.376;2022-11-06T07:32:07;101245.56;;;9.46;nan
70053;BME280;57398;52.032;4.376;2022-11-06T07:34:36;101239.56;;;9.46;nan
70053;BME280;57398;52.032;4.376;2022-11-06T07:39:33;101227.00;;;9.49;nan
70053;BME280;57398;52.032;4.376;2022-11-06T07:42:01;101228.59;;;9.50;nan
70053;BME280;57398;52.032;4.376;2022-11-06T07:44:28;101229.41;;;9.51;nan
70053;BME280;57398;52.032;4.376;2022-11-06T07:46:56;101239.97;;;9.56;nan
70053;BME280;57398;52.032;4.376;2022-11-06T07:49:24;101242.56;;;9.56;nan
70053;BME280;57398;52.032;4.376;2022-11-06T07:51:53;101248.13;;;9.53;nan
70053;BME280;57398;52.032;4.376;2022-11-06T07:56:47;101243.34;;;9.50;nan
70053;BME280;57398;52.032;4.376;2022-11-06T07:59:15;101240.56;;;9.51;nan
70053;BME280;57398;52.032;4.376;2022-11-06T08:04:11;101246.94;;;9.49;nan
70053;BME280;57398;52.032;4.376;2022-11-06T08:06:38;101239.97;;;9.49;nan
70053;BME280;57398;52.032;4.376;2022-11-06T08:09:07;101231.19;;;9.43;nan
70053;BME280;57398;52.032;4.376;2022-11-06T08:11:35;101237.38;;;9.49;nan
70053;BME280;57398;52.032;4.376;2022-11-06T08:14:03;101237.75;;;9.53;nan
70053;BME280;57398;52.032;4.376;2022-11-06T08:18:58;101220.59;;;9.52;nan
70053;BME280;57398;52.032;4.376;2022-11-06T08:21:26;101224.59;;;9.54;nan
70053;BME280;57398;52.032;4.376;2022-11-06T08:23:53;101211.63;;;9.54;nan
70053;BME280;57398;52.032;4.376;2022-11-06T08:26:23;101212.22;;;9.56;nan
70053;BME280;57398;52.032;4.376;2022-11-06T08:28:51;101199.44;;;9.55;nan
70053;BME280;57398;52.032;4.376;2022-11-06T08:31:19;101210.66;;;9.55;nan
70053;BME280;57398;52.032;4.376;2022-11-06T08:36:15;101188.88;;;9.56;nan
70053;BME280;57398;52.032;4.376;2022-11-06T08:41:13;101192.66;;;9.60;nan
70053;BME280;57398;52.032;4.376;2022-11-06T08:46:10;101178.50;;;9.63;nan
70053;BME280;57398;52.032;4.376;2022-11-06T08:48:38;101176.50;;;9.65;nan
70053;BME280;57398;52.032;4.376;2022-11-06T08:51:05;101178.47;;;9.70;nan
70053;BME280;57398;52.032;4.376;2022-11-06T08:56:01;101175.03;;;9.82;nan
70053;BME280;57398;52.032;4.376;2022-11-06T08:58:29;101179.63;;;9.87;nan
70053;BME280;57398;52.032;4.376;2022-11-06T09:00:58;101174.41;;;9.94;nan
70053;BME280;57398;52.032;4.376;2022-11-06T09:03:26;101174.19;;;10.02;nan
70053;BME280;57398;52.032;4.376;2022-11-06T09:05:53;101167.34;;;10.07;nan
70053;BME280;57398;52.032;4.376;2022-11-06T09:10:49;101165.31;;;10.23;nan
70053;BME280;57398;52.032;4.376;2022-11-06T09:13:22;101162.28;;;10.33;nan
70053;BME280;57398;52.032;4.376;2022-11-06T09:15:50;101151.06;;;10.39;nan
70053;BME280;57398;52.032;4.376;2022-11-06T09:18:19;101150.81;;;10.47;nan
70053;BME280;57398;52.032;4.376;2022-11-06T09:20:46;101163.19;;;10.52;nan
70053;BME280;57398;52.032;4.376;2022-11-06T09:23:14;101156.97;;;10.53;nan
70053;BME280;57398;52.032;4.376;2022-11-06T09:25:42;101161.19;;;10.54;nan
70053;BME280;57398;52.032;4.376;2022-11-06T09:28:10;101156.53;;;10.56;nan
70053;BME280;57398;52.032;4.376;2022-11-06T09:30:37;101137.47;;;10.68;nan
70053;BME280;57398;52.032;4.376;2022-11-06T09:33:05;101126.06;;;10.69;nan
70053;BME280;57398;52.032;4.376;2022-11-06T09:35:40;101133.81;;;10.76;nan
70053;BME280;57398;52.032;4.376;2022-11-06T09:38:10;101124.97;;;10.84;nan
70053;BME280;57398;52.032;4.376;2022-11-06T09:40:41;101118.91;;;10.90;nan
70053;BME280;57398;52.032;4.376;2022-11-06T09:43:30;101110.28;;;10.96;nan
70053;BME280;57398;52.032;4.376;2022-11-06T09:46:22;101110.53;;;10.88;nan
70053;BME280;57398;52.032;4.376;2022-11-06T09:48:55;101109.75;;;10.87;nan
70053;BME280;57398;52.032;4.376;2022-11-06T09:51:37;101104.19;;;10.84;nan
70053;BME280;57398;52.032;4.376;2022-11-06T09:54:12;101114.59;;;10.84;nan
70053;BME280;57398;52.032;4.376;2022-11-06T09:56:41;101098.19;;;10.83;nan
70053;BME280;57398;52.032;4.376;2022-11-06T09:59:13;101093.63;;;10.79;nan
70053;BME280;57398;52.032;4.376;2022-11-06T10:01:44;101092.69;;;10.73;nan
70053;BME280;57398;52.032;4.376;2022-11-06T10:04:22;101091.94;;;10.66;nan
70053;BME280;57398;52.032;4.376;2022-11-06T10:06:53;101097.13;;;10.66;nan
70053;BME280;57398;52.032;4.376;2022-11-06T10:09:21;101094.97;;;10.63;nan
70053;BME280;57398;52.032;4.376;2022-11-06T10:11:57;101090.34;;;10.65;nan
70053;BME280;57398;52.032;4.376;2022-11-06T10:14:41;101091.75;;;10.67;nan
70053;BME280;57398;52.032;4.376;2022-11-06T10:17:20;101097.50;;;10.69;nan
70053;BME280;57398;52.032;4.376;2022-11-06T10:19:55;101096.44;;;10.77;nan
70053;BME280;57398;52.032;4.376;2022-11-06T10:22:33;101080.28;;;10.75;nan
70053;BME280;57398;52.032;4.376;2022-11-06T10:25:15;101088.13;;;10.68;nan
70053;BME280;57398;52.032;4.376;2022-11-06T10:27:52;101080.19;;;10.63;nan
70053;BME280;57398;52.032;4.376;2022-11-06T10:30:22;101092.00;;;10.59;nan
70053;BME280;57398;52.032;4.376;2022-11-06T10:33:01;101077.84;;;10.55;nan
70053;BME280;57398;52.032;4.376;2022-11-06T10:35:33;101088.03;;;10.57;nan
70053;BME280;57398;52.032;4.376;2022-11-06T10:38:05;101077.03;;;10.55;nan
70053;BME280;57398;52.032;4.376;2022-11-06T10:40:37;101070.03;;;10.55;nan
70053;BME280;57398;52.032;4.376;2022-11-06T10:43:11;101064.47;;;10.52;nan
70053;BME280;57398;52.032;4.376;2022-11-06T10:45:43;101057.47;;;10.52;nan
70053;BME280;57398;52.032;4.376;2022-11-06T10:48:20;101063.66;;;10.51;nan
70053;BME280;57398;52.032;4.376;2022-11-06T10:53:38;101054.09;;;10.52;nan
70053;BME280;57398;52.032;4.376;2022-11-06T10:56:22;101035.91;;;10.52;nan
70053;BME280;57398;52.032;4.376;2022-11-06T10:58:54;101042.75;;;10.46;nan
70053;BME280;57398;52.032;4.376;2022-11-06T11:01:22;101043.53;;;10.46;nan
70053;BME280;57398;52.032;4.376;2022-11-06T11:03:50;101041.16;;;10.45;nan
70053;BME280;57398;52.032;4.376;2022-11-06T11:06:18;101039.34;;;10.45;nan
70053;BME280;57398;52.032;4.376;2022-11-06T11:08:48;101037.97;;;10.43;nan
70053;BME280;57398;52.032;4.376;2022-11-06T11:11:23;101036.81;;;10.39;nan
70053;BME280;57398;52.032;4.376;2022-11-06T11:14:12;101030.03;;;10.38;nan
70053;BME280;57398;52.032;4.376;2022-11-06T11:19:21;101034.84;;;10.27;nan
70053;BME280;57398;52.032;4.376;2022-11-06T11:21:54;101024.53;;;10.21;nan
70053;BME280;57398;52.032;4.376;2022-11-06T11:24:24;101029.34;;;10.17;nan
70053;BME280;57398;52.032;4.376;2022-11-06T11:26:53;101025.38;;;10.15;nan
70053;BME280;57398;52.032;4.376;2022-11-06T11:29:24;101026.16;;;10.15;nan
70053;BME280;57398;52.032;4.376;2022-11-06T11:41:51;100991.03;;;10.13;nan
70053;BME280;57398;52.032;4.376;2022-11-06T11:46:48;100996.19;;;10.19;nan
70053;BME280;57398;52.032;4.376;2022-11-06T11:49:28;100969.84;;;10.16;nan
70053;BME280;57398;52.032;4.376;2022-11-06T11:51:57;100975.81;;;10.16;nan
70053;BME280;57398;52.032;4.376;2022-11-06T11:56:57;100971.84;;;10.14;nan
70053;BME280;57398;52.032;4.376;2022-11-06T11:59:35;100971.22;;;10.18;nan
70053;BME280;57398;52.032;4.376;2022-11-06T12:02:12;100964.41;;;10.24;nan
70053;BME280;57398;52.032;4.376;2022-11-06T12:04:44;100954.22;;;10.22;nan
70053;BME280;57398;52.032;4.376;2022-11-06T12:07:21;100954.81;;;10.24;nan
70053;BME280;57398;52.032;4.376;2022-11-06T12:09:51;100946.41;;;10.29;nan
70053;BME280;57398;52.032;4.376;2022-11-06T12:12:21;100938.56;;;10.36;nan
70053;BME280;57398;52.032;4.376;2022-11-06T12:15:04;100937.19;;;10.33;nan
70053;BME280;57398;52.032;4.376;2022-11-06T12:17:34;100926.56;;;10.35;nan
70053;BME280;57398;52.032;4.376;2022-11-06T12:20:10;100924.41;;;10.32;nan
70053;BME280;57398;52.032;4.376;2022-11-06T12:25:15;100899.63;;;10.36;nan
70053;BME280;57398;52.032;4.376;2022-11-06T12:30:14;100900.41;;;10.36;nan
70053;BME280;57398;52.032;4.376;2022-11-06T12:32:53;100905.94;;;10.40;nan
70053;BME280;57398;52.032;4.376;2022-11-06T12:35:25;100912.38;;;10.37;nan
70053;BME280;57398;52.032;4.376;2022-11-06T12:43:00;100905.03;;;10.27;nan
70053;BME280;57398;52.032;4.376;2022-11-06T12:48:12;100899.72;;;10.22;nan
70053;BME280;57398;52.032;4.376;2022-11-06T12:50:47;100886.16;;;10.20;nan
70053;BME280;57398;52.032;4.376;2022-11-06T12:53:26;100900.94;;;10.20;nan
70053;BME280;57398;52.032;4.376;2022-11-06T12:56:04;100892.56;;;10.18;nan
70053;BME280;57398;52.032;4.376;2022-11-06T13:01:15;100894.63;;;10.09;nan
70053;BME280;57398;52.032;4.376;2022-11-06T13:04:05;100889.94;;;9.99;nan
70053;BME280;57398;52.032;4.376;2022-11-06T13:06:56;100913.13;;;9.94;nan
70053;BME280;57398;52.032;4.376;2022-11-06T13:09:30;100899.13;;;9.95;nan
70053;BME280;57398;52.032;4.376;2022-11-06T13:12:05;100898.75;;;9.92;nan
70053;BME280;57398;52.032;4.376;2022-11-06T13:14:45;100890.81;;;9.86;nan
70053;BME280;57398;52.032;4.376;2022-11-06T13:17:21;100874.91;;;9.83;nan
70053;BME280;57398;52.032;4.376;2022-11-06T13:19:54;100883.91;;;9.80;nan
70053;BME280;57398;52.032;4.376;2022-11-06T13:22:27;100878.34;;;9.77;nan
70053;BME280;57398;52.032;4.376;2022-11-06T13:25:00;100876.97;;;9.74;nan
70053;BME280;57398;52.032;4.376;2022-11-06T13:27:37;100879.75;;;9.73;nan
70053;BME280;57398;52.032;4.376;2022-11-06T13:30:13;100870.00;;;9.68;nan
70053;BME280;57398;52.032;4.376;2022-11-06T13:32:43;100872.81;;;9.67;nan
70053;BME280;57398;52.032;4.376;2022-11-06T13:35:20;100859.47;;;9.63;nan
70053;BME280;57398;52.032;4.376;2022-11-06T13:37:49;100859.47;;;9.63;nan
70053;BME280;57398;52.032;4.376;2022-11-06T13:40:21;100868.25;;;9.62;nan
70053;BME280;57398;52.032;4.376;2022-11-06T13:42:58;100858.91;;;9.61;nan
70053;BME280;57398;52.032;4.376;2022-11-06T13:45:27;100861.69;;;9.59;nan
70053;BME280;57398;52.032;4.376;2022-11-06T13:48:09;100850.16;;;9.55;nan
70053;BME280;57398;52.032;4.376;2022-11-06T13:50:49;100836.72;;;9.40;nan
70053;BME280;57398;52.032;4.376;2022-11-06T13:53:24;100852.41;;;9.45;nan
70053;BME280;57398;52.032;4.376;2022-11-06T13:56:05;100850.84;;;9.44;nan
70053;BME280;57398;52.032;4.376;2022-11-06T13:59:07;100841.84;;;9.47;nan
70053;BME280;57398;52.032;4.376;2022-11-06T14:07:19;100839.31;;;9.40;nan
70053;BME280;57398;52.032;4.376;2022-11-06T14:09:48;100835.53;;;9.36;nan
70053;BME280;57398;52.032;4.376;2022-11-06T14:12:19;100838.31;;;9.34;nan
70053;BME280;57398;52.032;4.376;2022-11-06T14:14:48;100833.56;;;9.31;nan
70053;BME280;57398;52.032;4.376;2022-11-06T14:17:20;100820.22;;;9.28;nan
70053;BME280;57398;52.032;4.376;2022-11-06T14:22:29;100800.97;;;9.17;nan
70053;BME280;57398;52.032;4.376;2022-11-06T14:24:57;100789.47;;;9.06;nan
70053;BME280;57398;52.032;4.376;2022-11-06T14:28:01;100800.28;;;8.96;nan
70053;BME280;57398;52.032;4.376;2022-11-06T14:30:43;100798.31;;;8.92;nan
70053;BME280;57398;52.032;4.376;2022-11-06T14:44:48;100745.13;;;8.57;nan
70053;BME280;57398;52.032;4.376;2022-11-06T14:47:25;100749.69;;;8.55;nan
70053;BME280;57398;52.032;4.376;2022-11-06T14:49:56;100743.56;;;8.50;nan
70053;BME280;57398;52.032;4.376;2022-11-06T14:52:25;100747.72;;;8.51;nan
70053;BME280;57398;52.032;4.376;2022-11-06T14:54:59;100738.38;;;8.50;nan
70053;BME280;57398;52.032;4.376;2022-11-06T17:36:27;100641.84;;;7.97;nan
70053;BME280;57398;52.032;4.376;2022-11-06T17:38:56;100639.03;;;7.99;nan
70053;BME280;57398;52.032;4.376;2022-11-06T17:41:25;100635.84;;;8.04;nan
70053;BME280;57398;52.032;4.376;2022-11-06T17:43:58;100639.78;;;8.06;nan
70053;BME280;57398;52.032;4.376;2022-11-06T17:46:28;100629.44;;;8.06;nan
70053;BME280;57398;52.032;4.376;2022-11-06T17:48:55;100624.66;;;8.10;nan
70053;BME280;57398;52.032;4.376;2022-11-06T17:51:23;100640.16;;;8.16;nan
70053;BME280;57398;52.032;4.376;2022-11-06T17:54:10;100635.16;;;8.22;nan
70053;BME280;57398;52.032;4.376;2022-11-06T17:59:08;100645.66;;;8.27;nan
70053;BME280;57398;52.032;4.376;2022-11-06T18:01:36;100644.25;;;8.31;nan
70053;BME280;57398;52.032;4.376;2022-11-06T18:04:04;100634.69;;;8.31;nan
70053;BME280;57398;52.032;4.376;2022-11-06T18:06:33;100634.88;;;8.36;nan
70053;BME280;57398;52.032;4.376;2022-11-06T18:09:03;100637.66;;;8.42;nan
70053;BME280;57398;52.032;4.376;2022-11-06T18:11:32;100638.44;;;8.42;nan
70053;BME280;57398;52.032;4.376;2022-11-06T18:14:00;100632.84;;;8.45;nan
70053;BME280;57398;52.032;4.376;2022-11-06T18:16:31;100636.03;;;8.47;nan
70053;BME280;57398;52.032;4.376;2022-11-06T18:18:59;100627.63;;;8.52;nan
70053;BME280;57398;52.032;4.376;2022-11-06T18:23:54;100623.03;;;8.54;nan
70053;BME280;57398;52.032;4.376;2022-11-06T18:26:21;100613.28;;;8.56;nan
70053;BME280;57398;52.032;4.376;2022-11-06T18:28:49;100611.06;;;8.59;nan
70053;BME280;57398;52.032;4.376;2022-11-06T18:31:18;100614.84;;;8.64;nan
70053;BME280;57398;52.032;4.376;2022-11-06T18:33:47;100605.47;;;8.63;nan
70053;BME280;57398;52.032;4.376;2022-11-06T18:36:15;100602.69;;;8.64;nan
70053;BME280;57398;52.032;4.376;2022-11-06T18:38:43;100603.66;;;8.63;nan
70053;BME280;57398;52.032;4.376;2022-11-06T18:41:12;100600.28;;;8.63;nan
70053;BME280;57398;52.032;4.376;2022-11-06T18:43:40;100585.75;;;8.62;nan